createdAt,value
2018-12-07T00:01:26.228Z,20.60
2018-12-07T00:03:55.822Z,19.73
2018-12-07T00:06:25.525Z,19.67
2018-12-07T00:08:55.961Z,18.30
2018-12-07T00:11:25.678Z,18.13
2018-12-07T00:13:55.488Z,18.80
2018-12-07T00:16:25.073Z,19.57
2018-12-07T00:18:55.022Z,19.47
2018-12-07T00:21:24.811Z,17.93
2018-12-07T00:23:54.538Z,17.63
2018-12-07T00:26:25.148Z,19.37
2018-12-07T00:28:54.852Z,21.13
2018-12-07T00:31:24.671Z,20.13
2018-12-07T00:33:54.473Z,19.47
2018-12-07T00:36:24.205Z,20.87
2018-12-07T00:38:54.221Z,18.43
2018-12-07T00:41:24.036Z,18.73
2018-12-07T00:43:53.947Z,19.50
2018-12-07T00:46:23.886Z,19.20
2018-12-07T00:48:53.758Z,19.83
2018-12-07T00:51:23.807Z,18.17
2018-12-07T00:53:53.815Z,19.97
2018-12-07T00:56:23.396Z,19.17
2018-12-07T00:58:53.839Z,20.43
2018-12-07T01:01:23.428Z,20.37
2018-12-07T01:03:53.174Z,19.53
2018-12-07T01:06:23.051Z,21.50
2018-12-07T01:08:52.863Z,18.77
2018-12-07T01:11:23.392Z,19.83
2018-12-07T01:13:53.033Z,25.03
2018-12-07T01:16:22.511Z,23.27
2018-12-07T01:18:52.416Z,22.20
2018-12-07T01:21:22.023Z,24.60
2018-12-07T01:23:51.857Z,23.77
2018-12-07T01:26:21.449Z,23.00
2018-12-07T01:28:51.704Z,21.43
2018-12-07T01:31:21.791Z,22.13
2018-12-07T01:33:51.927Z,28.10
2018-12-07T01:36:21.511Z,25.03
2018-12-07T01:38:51.534Z,29.17
2018-12-07T01:41:21.975Z,27.63
2018-12-07T01:43:51.772Z,25.40
2018-12-07T01:46:21.483Z,24.63
2018-12-07T01:48:51.497Z,27.73
2018-12-07T01:51:21.400Z,25.23
2018-12-07T01:53:51.420Z,26.27
2018-12-07T01:56:20.936Z,19.57
2018-12-07T01:58:50.428Z,22.53
2018-12-07T02:01:20.157Z,21.87
2018-12-07T02:03:50.387Z,21.20
2018-12-07T02:06:19.862Z,18.83
2018-12-07T02:08:49.371Z,21.37
2018-12-07T02:11:19.193Z,18.43
2018-12-07T02:13:49.837Z,18.83
2018-12-07T02:16:19.518Z,16.97
2018-12-07T02:18:49.343Z,17.23
2018-12-07T02:21:19.043Z,18.27
2018-12-07T02:23:49.785Z,15.57
2018-12-07T02:26:19.599Z,15.20
2018-12-07T02:28:50.026Z,15.10
2018-12-07T02:50:04.386Z,8.97
2018-12-07T02:52:34.035Z,9.37
2018-12-07T02:55:03.617Z,10.10
2018-12-07T02:57:33.206Z,9.90
2018-12-07T03:00:03.033Z,10.30
2018-12-07T03:02:33.061Z,9.30
2018-12-07T03:05:02.848Z,9.67
2018-12-07T03:07:33.031Z,9.93
2018-12-07T03:10:02.573Z,9.87
2018-12-07T03:12:32.281Z,10.47
2018-12-07T03:15:02.009Z,9.63
2018-12-07T03:17:31.798Z,10.77
2018-12-07T03:20:01.415Z,11.37
2018-12-07T03:22:32.049Z,10.57
2018-12-07T03:25:02.052Z,11.63
2018-12-07T03:27:31.783Z,10.67
2018-12-07T03:30:02.018Z,10.70
2018-12-07T03:32:32.102Z,10.73
2018-12-07T03:35:01.507Z,10.80
2018-12-07T03:37:31.518Z,10.90
2018-12-07T03:40:01.350Z,11.97
2018-12-07T03:42:31.085Z,10.80
2018-12-07T03:45:00.751Z,11.80
2018-12-07T03:47:30.686Z,13.00
2018-12-07T03:50:00.592Z,11.80
2018-12-07T03:52:30.405Z,12.47
2018-12-07T03:55:00.406Z,12.83
2018-12-07T03:57:30.423Z,12.07
2018-12-07T03:59:59.930Z,12.97
2018-12-07T04:02:29.956Z,14.30
2018-12-07T04:04:59.766Z,13.60
2018-12-07T04:07:29.778Z,13.47
2018-12-07T04:10:00.037Z,13.27
2018-12-07T04:12:29.910Z,14.90
2018-12-07T04:14:59.922Z,13.80
2018-12-07T04:17:29.953Z,13.80
2018-12-07T04:20:00.884Z,12.60
2018-12-07T04:22:30.604Z,12.57
2018-12-07T04:25:00.819Z,12.97
2018-12-07T04:27:30.521Z,12.67
2018-12-07T04:30:04.432Z,12.60
2018-12-07T04:32:34.038Z,12.20
2018-12-07T04:35:04.771Z,13.37
2018-12-07T04:37:35.921Z,12.87
2018-12-07T04:40:06.046Z,12.00
2018-12-07T04:42:36.358Z,12.03
2018-12-07T04:45:09.876Z,11.33
2018-12-07T04:47:40.204Z,11.30
2018-12-07T04:50:15.413Z,11.80
2018-12-07T04:52:45.963Z,12.30
2018-12-07T04:55:21.069Z,12.73
2018-12-07T04:57:56.313Z,12.30
2018-12-07T05:00:26.967Z,13.00
2018-12-07T05:02:58.401Z,13.07
2018-12-07T05:08:04.383Z,13.47
2018-12-07T05:10:34.923Z,14.17
2018-12-07T05:13:05.056Z,13.17
2018-12-07T05:15:34.835Z,12.60
2018-12-07T05:18:04.433Z,13.47
2018-12-07T05:20:33.939Z,13.63
2018-12-07T05:23:06.846Z,13.77
2018-12-07T05:25:36.950Z,12.67
2018-12-07T05:28:06.767Z,13.80
2018-12-07T05:30:36.464Z,14.30
2018-12-07T05:33:07.027Z,12.70
2018-12-07T05:35:36.932Z,12.93
2018-12-07T05:38:06.947Z,13.53
2018-12-07T05:40:36.631Z,12.57
2018-12-07T05:43:06.679Z,11.83
2018-12-07T05:45:36.175Z,12.53
2018-12-07T05:48:06.474Z,13.00
2018-12-07T05:50:36.493Z,12.60
2018-12-07T05:53:07.862Z,12.47
2018-12-07T05:55:37.664Z,13.63
2018-12-07T05:58:07.780Z,13.57
2018-12-07T06:00:37.689Z,12.93
2018-12-07T06:03:08.427Z,15.23
2018-12-07T06:05:38.254Z,17.80
2018-12-07T06:08:08.164Z,16.50
2018-12-07T06:10:38.187Z,17.07
2018-12-07T06:13:08.381Z,15.13
2018-12-07T06:15:38.213Z,12.57
2018-12-07T06:18:08.636Z,13.33
2018-12-07T06:20:41.397Z,13.20
2018-12-07T06:23:11.032Z,13.20
2018-12-07T06:25:40.514Z,13.73
2018-12-07T06:28:11.284Z,14.70
2018-12-07T06:30:41.070Z,14.77
2018-12-07T06:33:13.944Z,15.37
2018-12-07T06:35:43.870Z,16.87
2018-12-07T06:38:13.999Z,16.97
2018-12-07T06:40:43.479Z,16.13
2018-12-07T06:43:13.406Z,16.80
2018-12-07T06:45:43.035Z,17.67
2018-12-07T06:48:12.952Z,17.03
2018-12-07T06:50:42.518Z,14.87
2018-12-07T06:53:12.972Z,15.97
2018-12-07T06:55:43.187Z,15.50
2018-12-07T06:58:13.235Z,15.60
2018-12-07T07:00:43.006Z,13.83
2018-12-07T07:03:13.328Z,14.40
2018-12-07T07:05:43.457Z,15.50
2018-12-07T07:08:16.830Z,14.37
2018-12-07T07:10:46.670Z,17.20
2018-12-07T07:13:16.557Z,16.83
2018-12-07T07:15:46.582Z,16.70
2018-12-07T07:18:17.035Z,18.77
2018-12-07T07:20:47.038Z,20.27
2018-12-07T07:23:16.843Z,14.70
2018-12-07T07:25:46.544Z,14.03
2018-12-07T07:28:16.450Z,12.73
2018-12-07T07:30:46.485Z,12.67
2018-12-07T07:33:16.490Z,14.63
2018-12-07T07:35:46.623Z,14.27
2018-12-07T07:38:16.411Z,15.03
2018-12-07T07:40:46.249Z,12.90
2018-12-07T07:43:16.557Z,13.57
2018-12-07T07:45:46.364Z,13.80
2018-12-07T07:48:16.277Z,13.63
2018-12-07T07:50:46.321Z,13.80
2018-12-07T07:53:16.925Z,13.67
2018-12-07T07:55:46.855Z,13.50
2018-12-07T07:58:17.408Z,14.73
2018-12-07T08:00:47.316Z,15.67
2018-12-07T08:03:19.668Z,15.17
2018-12-07T08:05:49.466Z,16.27
2018-12-07T08:08:19.584Z,16.73
2018-12-07T08:10:49.719Z,17.03
2018-12-07T08:13:19.840Z,18.50
2018-12-07T08:15:50.361Z,17.50
2018-12-07T08:18:20.700Z,18.40
2018-12-07T08:20:51.428Z,16.77
2018-12-07T08:23:21.731Z,18.17
2018-12-07T08:25:51.954Z,18.13
2018-12-07T08:28:22.728Z,17.23
2018-12-07T08:30:52.820Z,18.00
2018-12-07T08:33:22.840Z,19.23
2018-12-07T08:35:52.939Z,18.97
2018-12-07T08:38:22.954Z,17.97
2018-12-07T08:40:52.882Z,17.50
2018-12-07T08:43:22.798Z,19.47
2018-12-07T08:45:53.030Z,20.27
2018-12-07T08:48:22.934Z,18.47
2018-12-07T08:50:52.948Z,18.80
2018-12-07T08:53:23.685Z,18.33
2018-12-07T08:55:53.786Z,18.23
2018-12-07T08:58:23.916Z,18.10
2018-12-07T09:00:53.942Z,16.50
2018-12-07T09:03:24.078Z,15.17
2018-12-07T09:05:54.171Z,16.50
2018-12-07T09:08:25.629Z,14.97
2018-12-07T09:10:55.558Z,15.23
2018-12-07T09:13:28.408Z,13.20
2018-12-07T09:15:59.061Z,13.93
2018-12-07T09:18:29.168Z,13.97
2018-12-07T09:20:59.476Z,12.77
2018-12-07T09:23:29.928Z,12.73
2018-12-07T09:26:00.047Z,12.57
2018-12-07T09:28:29.847Z,11.90
2018-12-07T09:31:00.196Z,13.53
2018-12-07T09:33:29.888Z,13.03
2018-12-07T09:35:59.476Z,13.20
2018-12-07T09:38:29.802Z,15.57
2018-12-07T09:40:59.828Z,12.13
2018-12-07T09:43:29.425Z,12.97
2018-12-07T09:46:00.366Z,11.60
2018-12-07T09:48:30.806Z,11.97
2018-12-07T09:51:01.027Z,14.07
2018-12-07T09:53:31.035Z,13.87
2018-12-07T09:56:01.270Z,13.27
2018-12-07T09:58:31.564Z,11.37
2018-12-07T10:01:02.030Z,10.57
2018-12-07T10:03:31.501Z,9.90
2018-12-07T10:06:01.030Z,11.30
2018-12-07T10:08:31.119Z,11.23
2018-12-07T10:11:01.257Z,26.00
2018-12-07T10:13:30.882Z,16.27
2018-12-07T10:16:01.015Z,11.57
2018-12-07T10:18:31.033Z,12.23
2018-12-07T10:21:01.228Z,12.97
2018-12-07T10:23:31.018Z,13.03
2018-12-07T10:26:01.275Z,12.27
2018-12-07T10:28:32.709Z,11.83
2018-12-07T10:31:02.531Z,11.47
2018-12-07T10:33:32.928Z,9.63
2018-12-07T10:36:02.844Z,11.03
2018-12-07T10:38:33.053Z,10.97
2018-12-07T10:41:02.887Z,11.07
2018-12-07T10:43:32.900Z,12.27
2018-12-07T10:46:03.015Z,11.90
2018-12-07T10:48:33.045Z,11.10
2018-12-07T10:51:07.966Z,11.70
2018-12-07T10:53:34.915Z,10.73
2018-12-07T10:56:04.819Z,10.07
2018-12-07T10:58:36.004Z,9.60
2018-12-07T11:01:10.079Z,9.97
2018-12-07T11:03:44.213Z,9.50
2018-12-07T11:06:17.980Z,8.73
2018-12-07T11:08:52.719Z,10.30
2018-12-07T11:11:26.846Z,9.80
2018-12-07T11:14:01.765Z,9.67
2018-12-07T11:16:36.206Z,9.23
2018-12-07T11:19:10.395Z,9.53
2018-12-07T11:21:44.427Z,9.73
2018-12-07T11:24:18.327Z,9.70
2018-12-07T11:26:52.346Z,9.53
2018-12-07T11:29:26.050Z,10.53
2018-12-07T11:32:00.066Z,9.10
2018-12-07T11:34:33.946Z,10.93
2018-12-07T11:37:03.958Z,9.57
2018-12-07T11:39:33.975Z,10.60
2018-12-07T11:42:03.710Z,8.27
2018-12-07T11:44:36.570Z,9.67
2018-12-07T11:47:06.794Z,9.50
2018-12-07T11:49:37.457Z,9.90
2018-12-07T11:52:07.743Z,10.17
2018-12-07T11:54:37.866Z,10.30
2018-12-07T11:57:07.990Z,9.73
2018-12-07T11:59:41.390Z,9.83
2018-12-07T12:02:11.210Z,10.87
2018-12-07T12:04:44.049Z,10.30
2018-12-07T12:07:14.210Z,9.50
2018-12-07T12:09:44.722Z,8.67
2018-12-07T12:12:14.847Z,9.23
2018-12-07T12:14:44.570Z,8.77
2018-12-07T12:17:14.461Z,9.77
2018-12-07T12:19:44.391Z,9.73
2018-12-07T12:22:14.410Z,9.47
2018-12-07T12:24:44.409Z,14.80
2018-12-07T12:27:20.676Z,10.27
2018-12-07T12:29:52.056Z,10.33
2018-12-07T12:32:22.757Z,9.70
2018-12-07T12:34:53.403Z,12.53
2018-12-07T12:37:23.420Z,9.40
2018-12-07T12:39:53.440Z,8.90
2018-12-07T12:42:23.253Z,7.70
2018-12-07T12:44:53.035Z,9.60
2018-12-07T12:47:22.777Z,8.47
2018-12-07T12:49:52.571Z,8.67
2018-12-07T12:52:22.476Z,9.50
2018-12-07T12:54:52.188Z,10.93
2018-12-07T12:57:21.997Z,14.67
2018-12-07T12:59:51.401Z,16.67
2018-12-07T13:02:21.211Z,14.50
2018-12-07T13:04:50.832Z,9.83
2018-12-07T13:07:20.650Z,10.07
2018-12-07T13:09:50.770Z,9.53
2018-12-07T13:12:20.470Z,10.57
2018-12-07T13:14:50.378Z,8.63
2018-12-07T13:17:20.400Z,10.70
2018-12-07T13:19:50.407Z,12.73
2018-12-07T13:22:20.476Z,12.73
2018-12-07T13:24:50.968Z,11.43
2018-12-07T13:27:20.773Z,10.63
2018-12-07T13:29:50.900Z,11.30
2018-12-07T13:32:20.613Z,14.27
2018-12-07T13:34:50.406Z,17.53
2018-12-07T13:37:20.460Z,14.73
2018-12-07T13:39:50.139Z,16.07
2018-12-07T13:42:20.528Z,15.07
2018-12-07T13:44:50.426Z,15.13
2018-12-07T13:47:20.488Z,19.23
2018-12-07T13:49:52.072Z,12.43
2018-12-07T13:52:22.329Z,22.17
2018-12-07T13:54:52.515Z,18.80
2018-12-07T13:57:22.458Z,11.07
2018-12-07T13:59:52.164Z,13.57
2018-12-07T14:02:22.521Z,11.90
2018-12-07T14:04:52.600Z,12.40
2018-12-07T14:07:23.344Z,12.30
2018-12-07T14:09:53.334Z,11.13
2018-12-07T14:12:23.462Z,9.53
2018-12-07T14:14:53.401Z,11.00
2018-12-07T14:17:23.203Z,9.60
2018-12-07T14:19:53.396Z,10.03
2018-12-07T14:22:23.413Z,15.57
2018-12-07T14:24:53.612Z,13.47
2018-12-07T14:27:23.422Z,12.30
2018-12-07T14:29:53.436Z,13.23
2018-12-07T14:32:23.306Z,11.43
2018-12-07T14:34:53.315Z,12.33
2018-12-07T14:37:23.611Z,13.37
2018-12-07T14:39:53.869Z,16.77
2018-12-07T14:42:23.681Z,16.53
2018-12-07T14:44:53.913Z,17.97
2018-12-07T14:47:23.814Z,18.33
2018-12-07T14:49:54.349Z,18.90
2018-12-07T14:52:24.250Z,16.73
2018-12-07T14:54:54.268Z,17.70
2018-12-07T14:57:24.035Z,18.63
2018-12-07T14:59:54.235Z,18.47
2018-12-07T15:02:24.110Z,20.30
2018-12-07T15:04:54.427Z,18.80
2018-12-07T15:07:25.405Z,19.10
2018-12-07T15:09:56.196Z,17.87
2018-12-07T15:12:27.017Z,20.40
2018-12-07T15:14:58.101Z,18.17
2018-12-07T15:17:28.295Z,17.13
2018-12-07T15:19:58.524Z,18.03
2018-12-07T15:22:28.505Z,17.50
2018-12-07T15:24:59.007Z,18.97
2018-12-07T15:27:29.661Z,19.90
2018-12-07T15:30:00.035Z,17.20
2018-12-07T15:32:31.438Z,18.17
2018-12-07T15:35:02.085Z,20.67
2018-12-07T15:37:33.087Z,17.17
2018-12-07T15:40:03.514Z,16.70
2018-12-07T15:42:33.459Z,15.83
2018-12-07T15:45:03.557Z,16.70
2018-12-07T15:47:34.069Z,15.97
2018-12-07T15:50:04.001Z,18.47
2018-12-07T15:52:34.371Z,19.07
2018-12-07T15:55:04.490Z,26.57
2018-12-07T15:57:37.970Z,17.97
2018-12-07T16:00:08.592Z,17.07
2018-12-07T16:02:38.883Z,18.13
2018-12-07T16:05:09.217Z,15.20
2018-12-07T16:07:40.066Z,14.93
2018-12-07T16:10:10.340Z,15.30
2018-12-07T16:12:40.594Z,15.13
2018-12-07T16:15:10.948Z,15.27
2018-12-07T16:17:41.466Z,14.67
2018-12-07T16:20:13.218Z,16.03
2018-12-07T16:22:43.478Z,13.73
2018-12-07T16:25:13.155Z,17.53
2018-12-07T16:27:43.560Z,15.77
2018-12-07T16:30:14.236Z,15.83
2018-12-07T16:32:44.106Z,20.97
2018-12-07T16:35:14.239Z,22.80
2018-12-07T16:37:44.692Z,22.43
2018-12-07T16:40:14.812Z,19.20
2018-12-07T16:42:45.025Z,19.50
2018-12-07T16:45:15.169Z,20.63
2018-12-07T16:47:45.277Z,24.03
2018-12-07T16:50:15.558Z,31.10
2018-12-07T16:52:45.778Z,24.90
2018-12-07T16:55:16.608Z,22.87
2018-12-07T16:57:46.920Z,23.07
2018-12-07T17:00:17.061Z,23.27
2018-12-07T17:02:47.544Z,22.23
2018-12-07T17:05:21.424Z,22.73
2018-12-07T17:07:51.602Z,22.83
2018-12-07T17:10:21.561Z,26.00
2018-12-07T17:12:51.310Z,22.27
2018-12-07T17:15:21.207Z,21.93
2018-12-07T17:17:51.075Z,20.73
2018-12-07T17:20:21.407Z,21.20
2018-12-07T17:22:51.580Z,18.10
2018-12-07T17:25:21.765Z,19.67
2018-12-07T17:27:52.428Z,20.57
2018-12-07T17:30:22.697Z,20.53
2018-12-07T17:32:52.773Z,18.63
2018-12-07T17:35:22.927Z,17.63
2018-12-07T17:37:52.979Z,16.13
2018-12-07T17:40:23.814Z,17.03
2018-12-07T17:42:54.709Z,19.63
2018-12-07T17:45:25.128Z,17.37
2018-12-07T17:47:56.110Z,18.60
2018-12-07T17:50:26.407Z,18.60
2018-12-07T17:52:58.070Z,19.23
2018-12-07T17:55:29.127Z,19.30
2018-12-07T17:58:00.611Z,19.90
2018-12-07T18:00:31.992Z,20.40
2018-12-07T18:03:02.824Z,20.43
2018-12-07T18:05:33.095Z,22.60
2018-12-07T18:08:03.388Z,22.33
2018-12-07T18:10:33.958Z,24.43
2018-12-07T18:13:05.385Z,23.20
2018-12-07T18:15:36.616Z,25.60
2018-12-07T18:18:07.589Z,24.37
2018-12-07T18:20:38.207Z,24.70
2018-12-07T18:23:09.994Z,27.00
2018-12-07T18:25:40.996Z,27.10
2018-12-07T18:28:12.308Z,23.57
2018-12-07T18:30:43.132Z,26.40
2018-12-07T18:33:14.389Z,27.20
2018-12-07T18:35:45.073Z,26.47
2018-12-07T18:38:15.287Z,26.17
2018-12-07T18:40:45.287Z,25.33
2018-12-07T18:43:15.456Z,27.00
2018-12-07T18:45:45.490Z,26.67
2018-12-07T18:48:17.686Z,25.80
2018-12-07T18:50:48.028Z,29.80
2018-12-07T18:53:18.692Z,27.90
2018-12-07T18:55:49.052Z,26.07
2018-12-07T18:58:19.167Z,28.10
2018-12-07T19:00:52.357Z,26.33
2018-12-07T19:03:22.493Z,27.23
2018-12-07T19:05:56.269Z,26.20
2018-12-07T19:08:26.395Z,23.13
2018-12-07T19:10:56.363Z,23.87
2018-12-07T19:13:27.617Z,25.17
2018-12-07T19:15:58.097Z,23.97
2018-12-07T19:18:29.506Z,22.17
2018-12-07T19:21:00.481Z,21.37
2018-12-07T19:23:30.628Z,20.00
2018-12-07T19:26:04.324Z,22.30
2018-12-07T19:28:35.826Z,22.63
2018-12-07T19:31:09.145Z,21.47
2018-12-07T19:33:39.508Z,20.30
2018-12-07T19:36:10.007Z,20.10
2018-12-07T19:38:41.400Z,20.27
2018-12-07T19:41:12.066Z,20.73
2018-12-07T19:43:42.644Z,20.77
2018-12-07T19:46:13.669Z,18.20
2018-12-07T19:48:44.582Z,18.13
2018-12-07T19:51:18.875Z,20.20
2018-12-07T19:53:49.070Z,20.73
2018-12-07T19:56:19.749Z,22.00
2018-12-07T19:58:54.634Z,19.17
2018-12-07T20:01:26.053Z,19.67
2018-12-07T20:03:57.028Z,21.70
2018-12-07T20:06:28.198Z,19.00
2018-12-07T20:09:02.261Z,18.53
2018-12-07T20:11:36.104Z,18.17
2018-12-07T20:14:08.421Z,17.87
2018-12-07T20:16:41.051Z,18.67
2018-12-07T20:19:12.020Z,19.53
2018-12-07T20:21:44.156Z,20.10
2018-12-07T20:24:15.661Z,17.97
2018-12-07T20:26:46.096Z,17.37
2018-12-07T20:29:16.291Z,16.53
2018-12-07T20:31:52.865Z,16.60
2018-12-07T20:34:26.841Z,16.30
2018-12-07T20:36:58.197Z,16.87
2018-12-07T20:39:30.840Z,16.00
2018-12-07T20:42:02.046Z,17.60
2018-12-07T20:44:33.899Z,17.93
2018-12-07T20:47:04.807Z,17.07
2018-12-07T20:49:36.485Z,17.83
2018-12-07T20:52:07.173Z,18.10
2018-12-07T20:54:43.071Z,18.00
2018-12-07T20:57:13.505Z,17.97
2018-12-07T20:59:47.030Z,17.07
2018-12-07T21:02:17.834Z,17.33
2018-12-07T21:04:49.230Z,17.27
2018-12-07T21:07:28.118Z,18.50
2018-12-07T21:10:02.947Z,18.43
2018-12-07T21:12:41.962Z,18.10
2018-12-07T21:15:12.600Z,17.13
2018-12-07T21:17:42.874Z,16.20
2018-12-07T21:20:18.353Z,19.10
2018-12-07T21:22:49.882Z,17.93
2018-12-07T21:25:19.632Z,18.50
2018-12-07T21:27:50.059Z,19.33
2018-12-07T21:30:29.827Z,21.33
2018-12-07T21:33:00.907Z,22.93
2018-12-07T21:35:39.980Z,20.47
2018-12-07T21:38:10.020Z,24.87
2018-12-07T21:40:40.075Z,23.73
2018-12-07T21:43:10.458Z,22.20
2018-12-07T21:45:41.138Z,25.30
2018-12-07T21:48:19.923Z,23.27
2018-12-07T21:50:52.478Z,23.23
2018-12-07T21:53:23.048Z,20.03
2018-12-07T21:55:53.145Z,19.87
2018-12-07T21:58:23.108Z,16.10
2018-12-07T22:00:53.214Z,17.40
2018-12-07T22:03:23.322Z,14.43
2018-12-07T22:05:53.191Z,17.97
2018-12-07T22:08:23.590Z,16.50
2018-12-07T22:10:53.866Z,14.57
2018-12-07T22:13:23.963Z,14.20
2018-12-07T22:15:53.758Z,16.50
2018-12-07T22:18:23.687Z,14.67
2018-12-07T22:20:54.064Z,15.43
2018-12-07T22:23:24.109Z,14.50
2018-12-07T22:25:54.601Z,15.17
2018-12-07T22:28:25.042Z,16.93
2018-12-07T22:30:55.457Z,17.83
2018-12-07T22:33:25.634Z,19.93
2018-12-07T22:35:55.512Z,15.83
2018-12-07T22:38:25.442Z,16.03
2018-12-07T22:40:55.087Z,15.43
2018-12-07T22:43:26.094Z,15.20
2018-12-07T22:45:56.007Z,14.80
2018-12-07T22:48:25.919Z,16.03
2018-12-07T22:50:55.833Z,14.73
2018-12-07T23:12:10.486Z,20.00
2018-12-07T23:14:40.802Z,19.27
2018-12-07T23:17:10.932Z,18.83
2018-12-07T23:19:40.666Z,16.70
2018-12-07T23:22:10.577Z,19.60
2018-12-07T23:24:41.198Z,16.57
2018-12-07T23:27:10.887Z,15.07
2018-12-07T23:29:40.699Z,16.80
2018-12-07T23:32:10.408Z,14.73
2018-12-07T23:34:40.021Z,18.00
2018-12-07T23:37:09.945Z,15.30
2018-12-07T23:39:39.466Z,15.37
2018-12-07T23:42:09.157Z,14.77
2018-12-07T23:44:38.959Z,13.90
2018-12-07T23:47:08.673Z,19.03
2018-12-07T23:49:38.387Z,15.47
2018-12-07T23:52:08.087Z,18.37
2018-12-07T23:54:37.897Z,15.70
2018-12-07T23:57:07.613Z,16.63
2018-12-07T23:59:37.057Z,18.00
